Time;durP1;ratioP1;P1;durP2;ratioP2;P2;SDS_P1;SDS_P2;PMS_P1;PMS_P2;Temp;Humidity;BMP_temperature;BMP_pressure;BME280_temperature;BME280_humidity;BME280_pressure;Samples;Min_cycle;Max_cycle;Signal;HPM_P1;HPM_P2
2021/11/14 00:02:00;;;;;;;10.83;9.83;;;11.30;91.00;;;;;;5148227;27;20435;-46
2021/11/14 00:04:26;;;;;;;10.97;9.87;;;11.20;91.00;;;;;;5139748;27;20429;-45
2021/11/14 00:06:51;;;;;;;11.03;9.87;;;11.20;91.10;;;;;;5138810;27;20405;-45
2021/11/14 00:09:17;;;;;;;10.90;9.90;;;11.20;91.20;;;;;;5138559;27;20264;-46
2021/11/14 00:11:43;;;;;;;10.70;9.70;;;11.10;91.30;;;;;;5136447;27;20194;-45
2021/11/14 00:14:09;;;;;;;9.50;8.60;;;11.20;91.40;;;;;;5136268;27;20238;-45
2021/11/14 00:16:34;;;;;;;10.70;9.60;;;11.10;91.40;;;;;;5136640;27;20472;-45
2021/11/14 00:19:00;;;;;;;10.10;9.10;;;11.10;91.50;;;;;;5136390;27;20179;-46
2021/11/14 00:21:27;;;;;;;9.30;8.40;;;11.10;91.60;;;;;;5136817;27;20685;-45
2021/11/14 00:23:53;;;;;;;10.00;9.00;;;11.10;91.60;;;;;;5137104;27;20217;-45
2021/11/14 00:26:19;;;;;;;10.70;9.60;;;11.10;91.90;;;;;;5137777;27;20447;-45
2021/11/14 00:28:45;;;;;;;9.87;8.87;;;11.00;91.60;;;;;;5137191;27;20176;-45
2021/11/14 00:31:14;;;;;;;9.57;8.63;;;11.00;91.60;;;;;;5137906;27;20421;-45
2021/11/14 00:33:44;;;;;;;9.87;8.97;;;11.00;91.70;;;;;;5138333;27;20280;-45
2021/11/14 00:36:16;;;;;;;9.70;8.70;;;11.00;91.80;;;;;;5131272;27;20432;-45
2021/11/14 00:38:43;;;;;;;9.40;8.50;;;11.00;91.80;;;;;;5138719;27;20936;-45
2021/11/14 00:41:08;;;;;;;10.93;9.33;;;11.00;91.90;;;;;;5120476;27;20496;-45
2021/11/14 00:43:38;;;;;;;9.50;8.53;;;11.00;91.90;;;;;;5138290;27;20784;-45
2021/11/14 00:46:05;;;;;;;9.70;8.80;;;11.00;91.90;;;;;;5138931;27;20198;-45
2021/11/14 00:48:31;;;;;;;11.00;7.90;;;11.00;92.00;;;;;;5138988;27;20423;-45
2021/11/14 00:50:57;;;;;;;9.67;8.63;;;11.00;92.00;;;;;;5138712;27;20861;-45
2021/11/14 00:53:23;;;;;;;9.73;8.77;;;11.00;92.00;;;;;;5140495;27;20222;-45
2021/11/14 00:55:49;;;;;;;9.70;8.63;;;10.90;92.00;;;;;;5147656;27;20487;-44
2021/11/14 00:58:15;;;;;;;11.13;9.80;;;10.90;92.00;;;;;;5149109;27;20412;-44
2021/11/14 01:00:42;;;;;;;7.93;7.10;;;10.90;92.20;;;;;;5152298;27;20545;-47
2021/11/14 01:03:09;;;;;;;10.57;9.43;;;10.90;92.00;;;;;;5151473;27;20404;-45
2021/11/14 01:05:37;;;;;;;8.30;7.50;;;10.90;92.10;;;;;;5149200;27;20424;-45
2021/11/14 01:08:04;;;;;;;8.37;7.57;;;10.90;92.10;;;;;;5148536;27;20419;-46
2021/11/14 01:10:33;;;;;;;8.30;7.43;;;10.90;92.20;;;;;;5140628;27;20508;-46
2021/11/14 01:12:58;;;;;;;9.07;8.27;;;10.90;92.20;;;;;;5144819;27;20700;-45
2021/11/14 01:15:24;;;;;;;9.10;7.10;;;10.90;92.20;;;;;;5148452;27;20422;-45
2021/11/14 01:17:52;;;;;;;8.00;7.20;;;10.90;92.30;;;;;;5147519;27;20636;-45
2021/11/14 01:20:24;;;;;;;9.27;8.27;;;10.90;92.30;;;;;;5149436;27;20194;-46
2021/11/14 01:22:51;;;;;;;9.37;8.47;;;10.90;92.40;;;;;;5148817;27;20494;-45
2021/11/14 01:25:18;;;;;;;10.00;8.73;;;10.90;92.40;;;;;;5147096;27;20777;-46
2021/11/14 01:27:44;;;;;;;8.70;7.87;;;10.90;92.40;;;;;;5148029;27;20806;-45
2021/11/14 01:30:14;;;;;;;9.50;8.43;;;10.80;92.40;;;;;;5149657;27;20476;-45
2021/11/14 01:32:41;;;;;;;8.70;7.87;;;10.80;92.40;;;;;;5149686;27;20842;-45
2021/11/14 01:35:08;;;;;;;9.43;8.50;;;10.80;92.50;;;;;;5155540;27;20466;-46
2021/11/14 01:37:34;;;;;;;8.70;7.80;;;10.80;92.60;;;;;;5162588;27;20411;-45
2021/11/14 01:40:00;;;;;;;8.40;7.60;;;10.80;92.90;;;;;;5161878;27;20404;-45
2021/11/14 01:42:25;;;;;;;9.20;8.30;;;10.80;92.70;;;;;;5162792;27;20171;-46
2021/11/14 01:44:51;;;;;;;8.00;7.20;;;10.80;92.70;;;;;;5161141;27;20199;-46
2021/11/14 01:47:16;;;;;;;9.43;8.50;;;10.80;92.80;;;;;;5158695;27;20186;-44
2021/11/14 01:49:42;;;;;;;9.37;8.53;;;10.80;92.80;;;;;;5158726;27;20186;-46
2021/11/14 01:52:23;;;;;;;9.13;8.23;;;10.80;92.80;;;;;;5152958;27;20296;-45
2021/11/14 01:54:49;;;;;;;8.73;7.83;;;10.80;92.90;;;;;;5151822;27;20212;-46
2021/11/14 01:57:14;;;;;;;10.70;9.60;;;10.80;92.90;;;;;;5149642;27;20409;-45
2021/11/14 01:59:40;;;;;;;10.30;9.30;;;10.70;92.90;;;;;;5153592;27;20170;-45
2021/11/14 02:02:06;;;;;;;12.77;9.83;;;10.70;92.90;;;;;;5152724;27;20565;-45
2021/11/14 02:04:32;;;;;;;9.73;8.73;;;10.70;93.00;;;;;;5152814;27;20229;-46
2021/11/14 02:10:20;;;;;;;11.90;10.70;;;10.70;93.10;;;;;;5153694;27;20576;-45
2021/11/14 02:12:45;;;;;;;11.47;10.37;;;10.70;93.20;;;;;;5132969;27;20413;-45
2021/11/14 02:15:11;;;;;;;10.27;9.20;;;10.70;93.20;;;;;;5147125;27;20881;-46
2021/11/14 02:17:37;;;;;;;9.67;8.67;;;10.70;93.20;;;;;;5148066;27;20212;-45
2021/11/14 02:20:06;;;;;;;11.17;10.10;;;10.60;93.20;;;;;;5146393;27;20568;-46
2021/11/14 02:22:32;;;;;;;10.90;9.83;;;10.60;93.20;;;;;;5149831;27;20574;-45
2021/11/14 02:24:58;;;;;;;10.10;9.10;;;10.60;93.20;;;;;;5150168;27;20417;-46
2021/11/14 02:27:24;;;;;;;10.87;9.80;;;10.60;93.20;;;;;;5150971;27;20194;-45
2021/11/14 02:29:50;;;;;;;11.83;10.63;;;10.60;93.20;;;;;;5147835;27;20811;-45
2021/11/14 02:32:15;;;;;;;10.50;9.50;;;10.60;93.20;;;;;;5148545;27;20423;-46
2021/11/14 02:34:41;;;;;;;11.03;9.83;;;10.60;93.30;;;;;;5148606;27;20207;-46
2021/11/14 02:37:07;;;;;;;11.20;9.80;;;10.60;93.20;;;;;;5147292;27;20244;-45
2021/11/14 02:39:33;;;;;;;10.60;9.53;;;10.60;93.20;;;;;;5148959;27;20181;-45
2021/11/14 02:41:59;;;;;;;11.40;9.60;;;10.60;93.20;;;;;;5147725;27;20426;-46
2021/11/14 02:44:25;;;;;;;10.90;9.90;;;10.60;93.20;;;;;;5147347;27;20454;-45
2021/11/14 02:46:51;;;;;;;12.30;11.00;;;10.60;93.20;;;;;;5147901;27;20429;-45
2021/11/14 02:49:17;;;;;;;12.00;10.90;;;10.60;93.30;;;;;;5156267;27;20424;-45
2021/11/14 02:51:43;;;;;;;11.60;10.50;;;10.60;93.20;;;;;;5159864;27;20262;-45
2021/11/14 02:54:10;;;;;;;11.30;10.13;;;10.60;93.20;;;;;;5159619;27;20452;-45
2021/11/14 02:56:37;;;;;;;11.47;10.47;;;10.60;93.20;;;;;;5160013;27;20412;-45
2021/11/14 02:59:03;;;;;;;11.90;10.70;;;10.60;93.30;;;;;;5142101;27;20825;-45
2021/11/14 03:01:34;;;;;;;11.53;10.40;;;10.60;93.60;;;;;;5160083;27;20834;-45
2021/11/14 03:03:59;;;;;;;12.40;11.10;;;10.60;93.30;;;;;;5161335;27;20412;-46
2021/11/14 03:06:40;;;;;;;11.63;10.50;;;10.60;93.30;;;;;;5161445;27;20424;-45
2021/11/14 03:09:05;;;;;;;11.73;10.63;;;10.60;93.40;;;;;;5159508;27;20412;-45
2021/11/14 03:11:31;;;;;;;11.43;10.33;;;10.60;93.40;;;;;;5161688;27;20431;-45
2021/11/14 03:13:57;;;;;;;11.50;10.40;;;10.60;93.40;;;;;;5161143;27;20222;-46
2021/11/14 03:16:29;;;;;;;9.77;8.87;;;10.60;93.40;;;;;;5161435;27;20502;-45
2021/11/14 03:18:56;;;;;;;11.90;10.80;;;10.50;93.40;;;;;;5160766;27;20217;-45
2021/11/14 03:21:22;;;;;;;10.40;9.40;;;10.60;93.40;;;;;;5160948;27;20448;-45
2021/11/14 03:23:47;;;;;;;11.27;9.83;;;10.60;93.40;;;;;;5159999;27;20699;-45
2021/11/14 03:26:13;;;;;;;12.20;11.00;;;10.60;93.40;;;;;;5159759;27;20520;-45
2021/11/14 03:28:42;;;;;;;11.37;10.37;;;10.60;93.40;;;;;;5159728;27;20207;-45
2021/11/14 03:31:07;;;;;;;11.97;10.87;;;10.60;93.50;;;;;;5158850;27;20479;-45
2021/11/14 03:33:33;;;;;;;11.53;10.43;;;10.60;93.50;;;;;;5158843;27;20460;-45
2021/11/14 03:36:11;;;;;;;10.87;9.80;;;10.50;93.50;;;;;;5159352;27;20183;-45
2021/11/14 03:38:41;;;;;;;10.97;9.97;;;10.50;93.50;;;;;;5159252;27;20810;-46
2021/11/14 03:41:09;;;;;;;10.60;9.50;;;10.50;93.50;;;;;;5158062;27;20451;-45
2021/11/14 03:43:36;;;;;;;10.93;9.83;;;10.50;93.50;;;;;;5159514;27;20459;-46
2021/11/14 03:46:03;;;;;;;11.07;9.93;;;10.50;93.60;;;;;;5159580;27;20432;-43
2021/11/14 03:48:30;;;;;;;11.60;10.40;;;10.50;93.60;;;;;;5159888;27;20736;-45
2021/11/14 03:50:55;;;;;;;10.00;9.10;;;10.50;93.50;;;;;;5159174;27;20528;-46
2021/11/14 03:53:24;;;;;;;11.47;10.40;;;10.50;93.60;;;;;;5158746;27;20550;-45
2021/11/14 03:55:52;;;;;;;11.63;10.53;;;10.50;93.60;;;;;;5159808;27;20183;-45
2021/11/14 03:58:17;;;;;;;12.57;10.70;;;10.50;93.60;;;;;;5160500;27;20467;-46
2021/11/14 04:00:46;;;;;;;12.50;11.20;;;10.50;93.60;;;;;;5160192;27;20436;-46
2021/11/14 04:03:12;;;;;;;11.17;10.07;;;10.50;93.70;;;;;;5159834;27;20277;-45
2021/11/14 04:05:44;;;;;;;11.83;10.63;;;10.50;93.70;;;;;;5159809;27;20420;-45
2021/11/14 04:08:14;;;;;;;11.80;10.70;;;10.50;93.80;;;;;;5159051;27;20459;-45
2021/11/14 04:10:41;;;;;;;12.87;11.50;;;10.50;93.80;;;;;;5140778;27;20416;-45
2021/11/14 04:13:07;;;;;;;12.33;10.90;;;10.50;93.80;;;;;;5158249;27;20420;-45
2021/11/14 04:15:34;;;;;;;13.50;12.13;;;10.50;93.80;;;;;;5159283;27;20404;-45
2021/11/14 04:18:03;;;;;;;14.17;11.43;;;10.50;93.80;;;;;;5159576;27;20415;-45
2021/11/14 04:20:30;;;;;;;12.30;11.10;;;10.50;93.90;;;;;;5159078;27;20430;-45
2021/11/14 04:22:57;;;;;;;13.83;12.37;;;10.40;93.90;;;;;;5160189;27;20779;-45
2021/11/14 04:25:27;;;;;;;14.50;12.33;;;10.40;93.90;;;;;;5159326;27;20419;-45
2021/11/14 04:27:54;;;;;;;13.03;11.60;;;10.40;93.90;;;;;;5159117;27;20432;-45
2021/11/14 04:30:21;;;;;;;13.13;11.70;;;10.50;94.00;;;;;;5141085;27;20480;-45
2021/11/14 04:32:47;;;;;;;11.90;10.70;;;10.40;93.90;;;;;;5159223;27;20775;-45
2021/11/14 04:35:13;;;;;;;12.63;11.27;;;10.40;93.90;;;;;;5159449;27;20460;-45
2021/11/14 04:37:39;;;;;;;12.57;11.10;;;10.40;94.00;;;;;;5141636;27;20179;-45
2021/11/14 04:40:08;;;;;;;11.47;10.37;;;10.40;94.00;;;;;;5159654;27;20509;-45
2021/11/14 04:42:34;;;;;;;12.00;10.80;;;10.40;94.00;;;;;;5159635;27;20700;-45
2021/11/14 04:45:01;;;;;;;11.70;10.50;;;10.40;94.00;;;;;;5158903;27;20409;-45
2021/11/14 04:47:26;;;;;;;11.20;10.13;;;10.40;94.00;;;;;;5158177;27;20430;-45
2021/11/14 04:49:52;;;;;;;12.47;11.13;;;10.40;94.00;;;;;;5158332;27;20826;-45
2021/11/14 04:52:18;;;;;;;11.60;10.40;;;10.40;94.00;;;;;;5158540;27;20431;-45
2021/11/14 04:54:52;;;;;;;13.20;11.90;;;10.40;94.00;;;;;;5158115;27;20302;-45
2021/11/14 04:57:17;;;;;;;11.53;10.43;;;10.40;94.00;;;;;;5158877;27;20179;-44
2021/11/14 04:59:43;;;;;;;12.10;10.80;;;10.40;94.00;;;;;;5140356;27;20430;-45
2021/11/14 05:02:09;;;;;;;13.97;11.03;;;10.40;94.10;;;;;;5139883;27;20190;-45
2021/11/14 05:04:35;;;;;;;11.83;10.70;;;10.40;94.10;;;;;;5157975;27;20751;-49
2021/11/14 05:07:00;;;;;;;12.50;11.23;;;10.40;94.10;;;;;;5158126;27;20488;-48
2021/11/14 05:09:26;;;;;;;12.43;11.17;;;10.40;94.10;;;;;;5157396;27;20167;-49
2021/11/14 05:11:52;;;;;;;12.27;11.00;;;10.40;94.10;;;;;;5158018;27;20179;-48
2021/11/14 05:14:18;;;;;;;13.97;12.67;;;10.40;94.00;;;;;;5158024;27;20206;-48
2021/11/14 05:16:43;;;;;;;14.57;12.87;;;10.40;94.30;;;;;;5139883;27;20417;-48
2021/11/14 05:19:09;;;;;;;15.00;13.40;;;10.40;94.00;;;;;;5140007;27;20217;-49
2021/11/14 05:21:35;;;;;;;12.77;11.43;;;10.40;93.90;;;;;;5136868;28;20195;-48
2021/11/14 05:24:00;;;;;;;13.00;11.63;;;10.40;93.90;;;;;;5138585;28;20195;-48
2021/11/14 05:26:26;;;;;;;14.83;13.33;;;10.40;93.90;;;;;;5138571;28;20179;-48
2021/11/14 05:28:52;;;;;;;14.20;12.90;;;10.40;93.90;;;;;;5138774;28;20193;-48
2021/11/14 05:31:17;;;;;;;14.73;13.23;;;10.40;93.90;;;;;;5137624;28;20186;-48
2021/11/14 05:33:43;;;;;;;14.87;12.50;;;10.40;94.00;;;;;;5137491;28;20221;-48
2021/11/14 05:36:09;;;;;;;14.77;13.27;;;10.40;94.00;;;;;;5138412;28;20183;-48
2021/11/14 05:38:34;;;;;;;15.27;13.67;;;10.30;94.00;;;;;;5138733;28;20176;-48
2021/11/14 05:41:00;;;;;;;14.80;13.20;;;10.30;94.10;;;;;;5120745;28;20196;-49
2021/11/14 05:43:26;;;;;;;14.03;12.60;;;10.30;94.10;;;;;;5138603;28;20458;-48
2021/11/14 05:45:51;;;;;;;13.80;12.47;;;10.30;94.20;;;;;;5138315;28;20515;-48
2021/11/14 05:48:17;;;;;;;14.53;13.13;;;10.20;94.20;;;;;;5138768;28;20226;-48
2021/11/14 05:50:43;;;;;;;14.13;12.63;;;10.20;94.20;;;;;;5149252;27;20513;-41
2021/11/14 05:53:09;;;;;;;14.60;13.10;;;10.20;94.20;;;;;;5158865;27;20183;-43
2021/11/14 05:55:35;;;;;;;15.47;13.90;;;10.20;94.20;;;;;;5159104;27;20178;-41
2021/11/14 05:58:13;;;;;;;15.17;13.43;;;10.20;94.20;;;;;;5159332;27;20436;-40
2021/11/14 06:05:50;;;;;;;13.63;12.23;;;10.20;94.10;;;;;;5158012;27;20403;-41
2021/11/14 06:08:20;;;;;;;16.67;12.63;;;10.20;94.20;;;;;;5139266;27;20424;-41
2021/11/14 06:10:48;;;;;;;13.83;12.40;;;10.20;94.20;;;;;;5138843;27;20456;-42
2021/11/14 06:13:13;;;;;;;13.90;12.60;;;10.20;94.20;;;;;;5138735;27;20902;-43
2021/11/14 06:15:39;;;;;;;13.80;12.40;;;10.20;94.20;;;;;;5158341;27;20404;-42
2021/11/14 06:18:04;;;;;;;15.70;13.10;;;10.20;94.20;;;;;;5161366;27;20185;-40
2021/11/14 06:20:30;;;;;;;16.13;14.53;;;10.20;94.30;;;;;;5160413;27;20182;-45
2021/11/14 06:22:56;;;;;;;14.67;13.10;;;10.10;94.30;;;;;;5161815;27;20179;-41
2021/11/14 06:25:22;;;;;;;14.83;13.33;;;10.10;94.30;;;;;;5161870;27;20171;-41
2021/11/14 06:27:48;;;;;;;16.50;13.93;;;10.10;94.30;;;;;;5161976;27;20841;-43
2021/11/14 06:30:15;;;;;;;15.77;14.20;;;10.10;94.30;;;;;;5161885;27;20604;-40
2021/11/14 06:32:42;;;;;;;15.50;13.50;;;10.10;94.40;;;;;;5162024;27;20175;-45
2021/11/14 06:35:08;;;;;;;16.23;13.93;;;10.10;94.70;;;;;;5162061;27;21085;-40
2021/11/14 06:37:38;;;;;;;14.23;12.40;;;10.10;94.40;;;;;;5161960;27;20484;-42
2021/11/14 06:40:06;;;;;;;14.30;12.80;;;10.10;94.40;;;;;;5162816;27;20428;-42
2021/11/14 06:42:32;;;;;;;15.60;13.97;;;10.10;94.40;;;;;;5162426;27;20503;-40
2021/11/14 06:44:58;;;;;;;14.90;13.10;;;10.10;94.40;;;;;;5162628;27;20523;-42
2021/11/14 06:47:33;;;;;;;13.93;12.50;;;10.10;94.50;;;;;;5162642;27;20202;-40
2021/11/14 06:49:58;;;;;;;13.90;12.40;;;10.10;94.50;;;;;;5140595;27;20573;-41
2021/11/14 06:52:25;;;;;;;14.80;13.07;;;10.20;94.60;;;;;;5141519;27;20413;-39
2021/11/14 06:54:51;;;;;;;13.30;12.00;;;10.20;94.60;;;;;;5141357;27;20227;-41
2021/11/14 06:57:18;;;;;;;16.13;13.07;;;10.20;94.60;;;;;;5141446;27;20409;-42
2021/11/14 06:59:53;;;;;;;15.60;13.73;;;10.20;94.60;;;;;;5141118;27;20432;-40
2021/11/14 07:02:18;;;;;;;14.17;12.67;;;10.30;94.50;;;;;;5141530;27;20404;-43
2021/11/14 07:04:44;;;;;;;15.03;13.20;;;10.40;94.50;;;;;;5140995;27;20432;-43
2021/11/14 07:07:10;;;;;;;15.27;12.83;;;10.40;94.50;;;;;;5141010;27;20195;-41
2021/11/14 07:09:35;;;;;;;14.87;13.23;;;10.50;94.50;;;;;;5141153;27;20195;-43
2021/11/14 07:12:01;;;;;;;14.37;12.87;;;10.50;94.40;;;;;;5141864;27;20204;-41
2021/11/14 07:14:27;;;;;;;14.47;12.97;;;10.50;94.30;;;;;;5141101;27;20480;-41
2021/11/14 07:16:54;;;;;;;13.60;12.20;;;10.50;94.30;;;;;;5140989;27;20175;-42
2021/11/14 07:19:19;;;;;;;14.83;13.33;;;10.50;94.30;;;;;;5141120;27;20528;-42
2021/11/14 07:21:46;;;;;;;15.07;12.80;;;10.60;94.20;;;;;;5160566;27;20506;-40
2021/11/14 07:24:13;;;;;;;14.93;12.90;;;10.60;94.20;;;;;;5161922;27;20255;-42
2021/11/14 07:26:39;;;;;;;15.07;12.93;;;10.70;94.20;;;;;;5143131;27;20476;-43
2021/11/14 07:29:04;;;;;;;14.00;12.60;;;10.80;94.20;;;;;;5161300;27;20424;-42
2021/11/14 07:31:33;;;;;;;13.30;11.97;;;10.90;94.20;;;;;;5161251;27;20451;-41
2021/11/14 07:34:06;;;;;;;13.70;12.30;;;11.00;94.10;;;;;;5161215;27;20874;-42
2021/11/14 07:36:32;;;;;;;14.83;13.13;;;11.10;94.00;;;;;;5161211;27;20408;-43
2021/11/14 07:38:58;;;;;;;13.93;11.63;;;11.20;93.90;;;;;;5161066;27;20425;-42
2021/11/14 07:41:24;;;;;;;12.33;11.03;;;11.30;93.80;;;;;;5161090;27;20422;-44
2021/11/14 07:43:50;;;;;;;13.57;12.17;;;11.50;93.70;;;;;;5159667;27;20175;-43
2021/11/14 07:46:16;;;;;;;13.73;11.37;;;11.70;93.60;;;;;;5159780;27;20187;-42
2021/11/14 07:48:43;;;;;;;12.27;11.03;;;12.20;93.90;;;;;;5141834;27;20446;-42
2021/11/14 07:51:10;;;;;;;12.37;11.17;;;12.70;93.70;;;;;;5138376;27;20584;-43
2021/11/14 07:53:36;;;;;;;12.70;11.33;;;13.30;93.20;;;;;;5137669;27;20750;-43
2021/11/14 07:56:03;;;;;;;10.00;9.00;;;13.70;92.40;;;;;;5138770;27;20402;-43
2021/11/14 07:58:29;;;;;;;11.73;10.53;;;14.20;91.70;;;;;;5129767;27;20628;-43
2021/11/14 08:00:55;;;;;;;11.00;10.00;;;14.50;91.10;;;;;;5122009;27;20493;-41
2021/11/14 08:03:23;;;;;;;10.60;9.50;;;14.90;90.50;;;;;;5144200;27;20432;-41
2021/11/14 08:05:49;;;;;;;9.17;8.27;;;15.10;90.00;;;;;;5141753;27;20187;-43
2021/11/14 08:08:15;;;;;;;9.73;8.83;;;15.40;89.20;;;;;;5159814;27;20435;-42
2021/11/14 08:10:41;;;;;;;9.70;8.70;;;15.60;88.30;;;;;;5160255;27;20524;-42
2021/11/14 08:13:07;;;;;;;9.70;8.60;;;15.80;87.60;;;;;;5140691;27;20469;-42
2021/11/14 08:15:33;;;;;;;10.30;8.80;;;16.00;86.70;;;;;;5138017;27;20462;-42
2021/11/14 08:17:59;;;;;;;10.30;9.37;;;16.30;85.70;;;;;;5137749;27;20418;-42
2021/11/14 08:20:25;;;;;;;8.73;7.93;;;16.40;84.80;;;;;;5146131;27;20529;-40
2021/11/14 08:22:50;;;;;;;9.87;8.90;;;16.40;84.10;;;;;;5158125;27;20210;-41
2021/11/14 08:25:18;;;;;;;11.77;10.63;;;16.20;83.50;;;;;;5141190;27;20739;-43
2021/11/14 08:27:44;;;;;;;11.43;10.23;;;16.00;83.30;;;;;;5124925;27;20191;-45
2021/11/14 08:30:14;;;;;;;10.97;9.87;;;15.80;83.50;;;;;;5159989;27;20463;-42
2021/11/14 08:32:43;;;;;;;11.63;10.50;;;15.60;83.50;;;;;;5159279;27;20420;-43
2021/11/14 08:35:09;;;;;;;10.87;9.80;;;15.40;83.80;;;;;;5141120;27;20565;-43
2021/11/14 08:37:35;;;;;;;14.50;12.27;;;15.20;84.00;;;;;;5159316;27;20851;-43
2021/11/14 08:40:05;;;;;;;11.23;10.13;;;14.90;84.00;;;;;;5159037;27;20419;-43
2021/11/14 08:42:30;;;;;;;12.77;11.57;;;14.80;84.50;;;;;;5159133;27;20522;-43
2021/11/14 08:45:01;;;;;;;12.50;11.20;;;14.60;84.90;;;;;;5158800;27;20448;-41
2021/11/14 08:47:27;;;;;;;13.13;11.73;;;14.40;85.20;;;;;;5123172;27;20195;-42
2021/11/14 08:49:53;;;;;;;12.43;11.23;;;14.30;85.50;;;;;;5159974;27;20483;-41
2021/11/14 08:52:18;;;;;;;12.93;11.63;;;14.20;85.70;;;;;;5159658;27;20194;-41
2021/11/14 08:54:44;;;;;;;14.67;13.17;;;14.10;86.10;;;;;;5159210;27;20281;-43
2021/11/14 08:57:10;;;;;;;13.67;12.27;;;14.00;86.40;;;;;;5159575;27;20193;-41
2021/11/14 08:59:38;;;;;;;15.03;13.00;;;14.00;86.70;;;;;;5159690;27;20502;-41
2021/11/14 09:02:04;;;;;;;13.30;11.90;;;13.90;86.80;;;;;;5141304;27;20489;-43
2021/11/14 09:04:29;;;;;;;13.03;11.83;;;13.90;86.90;;;;;;5136972;27;20464;-49
2021/11/14 09:06:55;;;;;;;12.80;11.50;;;14.00;87.30;;;;;;5157721;27;20825;-44
2021/11/14 09:09:22;;;;;;;12.97;11.67;;;14.20;87.50;;;;;;5155727;27;20251;-42
2021/11/14 09:11:48;;;;;;;11.90;10.80;;;14.20;87.00;;;;;;5138609;27;20424;-42
2021/11/14 09:14:14;;;;;;;12.43;11.23;;;14.30;86.70;;;;;;5156429;27;20491;-43
2021/11/14 09:16:40;;;;;;;12.30;11.00;;;14.40;86.50;;;;;;5145662;27;20413;-40
2021/11/14 09:19:07;;;;;;;12.30;11.10;;;14.40;86.20;;;;;;5133759;27;20508;-41
2021/11/14 09:21:34;;;;;;;12.47;11.37;;;14.40;86.00;;;;;;5150876;27;20439;-42
2021/11/14 09:24:01;;;;;;;13.40;12.00;;;14.30;85.60;;;;;;5138972;27;20437;-42
2021/11/14 09:26:27;;;;;;;12.47;11.23;;;14.30;85.60;;;;;;5137123;28;20843;-41
2021/11/14 09:28:52;;;;;;;12.27;11.07;;;14.20;85.40;;;;;;5119072;28;20431;-42
2021/11/14 09:31:18;;;;;;;12.83;10.70;;;14.20;85.50;;;;;;5137595;27;20534;-42
2021/11/14 09:33:46;;;;;;;11.00;9.83;;;14.10;85.40;;;;;;5137488;28;20235;-41
2021/11/14 09:36:12;;;;;;;13.13;11.93;;;14.00;85.40;;;;;;5138176;28;20194;-44
2021/11/14 09:38:38;;;;;;;11.57;10.47;;;13.90;85.50;;;;;;5138069;28;20443;-43
2021/11/14 09:41:06;;;;;;;11.90;10.70;;;13.90;85.70;;;;;;5138429;27;20420;-42
2021/11/14 09:43:32;;;;;;;13.70;12.30;;;13.90;85.90;;;;;;5152956;27;20442;-42
2021/11/14 09:45:59;;;;;;;13.50;12.20;;;13.80;85.90;;;;;;5137567;28;20430;-42
2021/11/14 09:48:24;;;;;;;13.57;11.60;;;13.70;85.90;;;;;;5137636;28;20459;-42
2021/11/14 09:50:52;;;;;;;14.47;12.97;;;13.70;86.10;;;;;;5138814;27;20714;-43
2021/11/14 09:53:18;;;;;;;13.60;12.30;;;13.60;86.20;;;;;;5140501;27;20704;-42
2021/11/14 09:55:44;;;;;;;12.47;11.27;;;13.60;86.40;;;;;;5141288;27;20431;-42
2021/11/14 09:58:09;;;;;;;14.00;11.37;;;13.60;86.40;;;;;;5141095;27;20420;-40
2021/11/14 10:00:39;;;;;;;13.63;12.30;;;13.70;86.50;;;;;;5139854;27;20335;-42
2021/11/14 10:03:06;;;;;;;12.63;11.10;;;13.70;86.40;;;;;;5141695;27;20273;-43
2021/11/14 10:05:34;;;;;;;12.60;11.30;;;13.80;86.50;;;;;;5141341;27;20933;-41
2021/11/14 10:08:05;;;;;;;13.40;12.10;;;13.80;86.30;;;;;;5141132;27;20428;-44
2021/11/14 10:10:36;;;;;;;13.57;12.27;;;13.80;86.10;;;;;;5141481;27;20885;-43
2021/11/14 10:13:33;;;;;;;13.07;11.77;;;13.90;86.10;;;;;;5122993;27;20518;-42
2021/11/14 10:16:08;;;;;;;12.50;11.07;;;13.90;85.90;;;;;;5119521;27;20483;-41
2021/11/14 10:18:34;;;;;;;12.13;10.90;;;14.00;85.90;;;;;;5141037;27;20416;-41
2021/11/14 10:21:02;;;;;;;12.97;11.53;;;14.00;85.70;;;;;;5143515;27;20439;-46
2021/11/14 10:23:29;;;;;;;13.60;12.20;;;14.10;85.70;;;;;;5141798;27;20408;-42
2021/11/14 10:26:10;;;;;;;13.00;11.80;;;14.10;85.60;;;;;;5123535;27;20718;-44
2021/11/14 10:28:48;;;;;;;12.60;11.33;;;14.20;85.60;;;;;;5146775;27;20826;-41
2021/11/14 10:31:21;;;;;;;13.03;11.73;;;14.20;85.40;;;;;;5141138;27;20442;-42
2021/11/14 10:33:48;;;;;;;14.57;11.97;;;14.30;85.20;;;;;;5123383;27;20468;-42
2021/11/14 10:36:14;;;;;;;13.67;11.90;;;14.40;85.10;;;;;;5121482;27;20698;-43
2021/11/14 10:38:40;;;;;;;12.50;11.20;;;14.50;84.80;;;;;;5120207;27;20433;-42
2021/11/14 10:41:09;;;;;;;12.20;10.90;;;14.60;84.50;;;;;;5102054;28;20461;-41
2021/11/14 10:43:51;;;;;;;13.60;11.57;;;14.70;84.30;;;;;;5082997;28;20437;-41
2021/11/14 10:46:20;;;;;;;12.47;11.17;;;14.70;84.00;;;;;;5086339;28;20433;-40
2021/11/14 10:48:47;;;;;;;11.07;9.80;;;14.70;83.70;;;;;;5099899;28;20487;-41
2021/11/14 10:51:14;;;;;;;12.47;10.83;;;14.70;83.50;;;;;;5132130;27;20447;-41
2021/11/14 10:53:41;;;;;;;12.90;10.83;;;14.70;83.50;;;;;;5136492;27;20472;-43
2021/11/14 10:56:11;;;;;;;11.90;10.70;;;14.60;83.40;;;;;;5138113;27;20405;-42
2021/11/14 10:58:42;;;;;;;11.60;10.50;;;14.60;83.50;;;;;;5137137;27;20478;-43
2021/11/14 11:01:12;;;;;;;13.27;11.90;;;14.50;83.50;;;;;;5118690;27;20418;-41
2021/11/14 11:03:50;;;;;;;13.47;11.63;;;14.40;83.70;;;;;;5116943;27;20437;-40
2021/11/14 11:06:25;;;;;;;13.03;10.70;;;14.30;83.90;;;;;;5138188;27;20413;-42
2021/11/14 11:08:52;;;;;;;15.00;13.40;;;14.30;84.30;;;;;;5139017;27;20420;-41
2021/11/14 11:11:22;;;;;;;13.33;11.30;;;14.20;84.40;;;;;;5138101;27;20409;-41
2021/11/14 11:13:49;;;;;;;15.00;13.33;;;14.20;84.60;;;;;;5127743;27;20758;-44
2021/11/14 11:16:27;;;;;;;13.00;11.60;;;14.20;84.80;;;;;;5117733;28;20417;-42
2021/11/14 11:19:02;;;;;;;14.07;12.63;;;14.20;84.90;;;;;;5118364;28;20467;-43
2021/11/14 11:21:40;;;;;;;14.77;13.10;;;14.30;85.00;;;;;;5119159;28;20414;-42
2021/11/14 11:24:15;;;;;;;13.40;12.00;;;14.30;84.90;;;;;;5100264;28;20430;-42
2021/11/14 11:27:00;;;;;;;14.83;12.33;;;14.40;84.90;;;;;;5119457;28;20707;-43
2021/11/14 11:29:27;;;;;;;18.60;13.97;;;14.50;84.90;;;;;;5117176;28;20474;-41
2021/11/14 11:31:56;;;;;;;18.03;13.70;;;14.60;84.80;;;;;;5115489;28;20533;-43
2021/11/14 11:34:23;;;;;;;15.00;13.17;;;14.60;84.50;;;;;;5099611;28;20573;-43
2021/11/14 11:36:53;;;;;;;14.90;13.10;;;14.70;84.40;;;;;;5117928;28;20497;-42
2021/11/14 11:39:19;;;;;;;19.20;14.97;;;14.70;84.20;;;;;;5100246;28;20807;-44
2021/11/14 11:41:48;;;;;;;17.87;14.57;;;14.70;84.20;;;;;;5118585;28;20426;-43
2021/11/14 11:44:14;;;;;;;17.30;14.07;;;14.60;84.10;;;;;;5119538;28;20436;-42
2021/11/14 11:46:49;;;;;;;15.10;12.67;;;14.60;84.20;;;;;;5118946;28;20455;-42
2021/11/14 11:49:20;;;;;;;16.53;14.33;;;14.60;84.20;;;;;;5118283;28;20432;-42
2021/11/14 11:51:53;;;;;;;14.20;12.00;;;14.60;84.40;;;;;;5094896;28;20436;-42
2021/11/14 11:54:22;;;;;;;15.60;13.27;;;14.60;84.40;;;;;;5118604;28;20473;-41
2021/11/14 11:57:00;;;;;;;13.40;11.90;;;14.60;84.40;;;;;;5098970;28;20433;-44
2021/11/14 11:59:36;;;;;;;15.17;11.50;;;14.70;84.50;;;;;;5116889;28;20727;-42
2021/11/14 12:02:12;;;;;;;14.03;11.47;;;14.70;84.50;;;;;;5117507;28;20417;-43
2021/11/14 12:04:45;;;;;;;14.30;12.27;;;14.70;84.30;;;;;;5097685;28;20507;-43
2021/11/14 12:07:33;;;;;;;14.47;11.83;;;14.70;84.20;;;;;;5096448;28;20424;-44
2021/11/14 12:10:21;;;;;;;13.57;11.00;;;14.60;84.00;;;;;;5085023;28;20436;-41
2021/11/14 12:12:55;;;;;;;15.23;13.20;;;14.60;84.20;;;;;;5095265;28;20434;-42
2021/11/14 12:15:25;;;;;;;12.93;11.53;;;14.60;84.40;;;;;;5096211;28;20462;-44
2021/11/14 12:18:06;;;;;;;12.40;11.10;;;14.60;84.50;;;;;;5112731;28;20431;-44
2021/11/14 12:20:38;;;;;;;13.00;10.93;;;14.60;84.80;;;;;;5099280;28;20726;-42
2021/11/14 12:23:29;;;;;;;16.50;13.37;;;14.70;85.10;;;;;;5118166;28;20422;-42
2021/11/14 12:25:57;;;;;;;13.37;10.90;;;14.80;84.80;;;;;;5103621;28;20448;-44
2021/11/14 12:28:34;;;;;;;12.53;11.23;;;14.80;84.30;;;;;;5116479;28;20707;-42
2021/11/14 12:31:17;;;;;;;13.07;11.47;;;14.90;84.30;;;;;;5117157;28;20554;-43
2021/11/14 12:33:49;;;;;;;12.70;10.53;;;14.90;84.10;;;;;;5116060;28;20468;-45
2021/11/14 12:36:36;;;;;;;6.97;6.20;;;14.90;83.90;;;;;;5116809;28;20505;-43
2021/11/14 12:39:13;;;;;;;4.87;4.00;;;14.90;85.70;;;;;;5117137;28;20432;-45
2021/11/14 12:41:40;;;;;;;5.80;4.17;;;15.10;88.30;;;;;;5099646;28;20502;-43
2021/11/14 12:44:06;;;;;;;7.73;4.50;;;15.30;89.10;;;;;;5117337;28;20490;-44